Mukilteo, WA (98275)

9:50 AM PST on November 27, 2014 (GMT -0800)
Olympic View | Change Station
CLOSE
Current Station
Personal Weather Station
Location: Mukilteo, WA
Elevation: 574 ft
Nearby Weather Stations
Active Advisory: Areal Flood Watch, Special Statement Active Notice: Record Report

Elev 574 ft 47.93 °N, 122.29 °W | Updated 6 minutes ago

Mostly Cloudy
Mostly Cloudy
55.0 °F
Feels Like 55.0 °F
N
3.8
Wind Variable Wind from South
Gusts 6.9 mph

Today
High -- | Low -- °F
--% Chance of Precip.
Yesterday
High -- | Low -- °F
Precip. -- in
7:32 AM 4:20 PM
Waxing Crescent, 31% visible
Pressure 29.82 in
Visibility 10.0 miles
Clouds Mostly Cloudy 1300 ft
Dew Point 50 °F
Humidity 84%
Rainfall 0.00 in
Snow Depth Not available.
UV 0 out of 12
Pollen .10 out of 12
Air Quality Not available.
Flu Activity Not available.
METAR KPAE 271653Z 18022G31KT 10SM BKN013 12/10 A2982 RMK AO2 PK WND 17034/1604 SLP097 T01220100

More Conditions Fewer Conditions

Pressure 29.82 in
Visibility 10.0 miles
Clouds Mostly Cloudy 1300 ft
Dew Point 50 °F
Humidity 84%
Rainfall 0.00 in
Snow Depth Not available.
UV 0 out of 12
Pollen .10 out of 12
Air Quality Not available.
Flu Activity Not available.
METAR KPAE 271653Z 18022G31KT 10SM BKN013 12/10 A2982 RMK AO2 PK WND 17034/1604 SLP097 T01220100

More Conditions Fewer Conditions

10-Day Weather Forecast

Almanac

Astronomy

Nov. 27, 2014 Rise Set
Actual Time
Civil Twilight
Nautical Twilight
Astronomical Twilight
Moon
Length of Visible Light
Length of Day
Tomorrow will be .
, % of the Moon is Illuminated

Today's Extremes

State Highs State Lows

Community

WunderPhotos

Upload Photos

1,774,061 photos uploaded!

WunderBlogs® & News

Nearby

Air Quality

  Air Quality AQ Index Pollutant
Not available.

Snow Depth

Station Depth Elevation

Earthquake Activity

City Distance Mag. Time & Date
Minimum magnitude displayed is 2.5.

Coastal Water Temperatures

Place Temperature

Nearby Weather Stations